sensor_id;sensor_type;location;lat;lon;timestamp;P1;durP1;ratioP1;P2;durP2;ratioP2
57241;SDS011;43095;53.302;5.786;2023-03-02T00:01:07;15.52;;;10.85;;
57241;SDS011;43095;53.302;5.786;2023-03-02T00:03:36;16.70;;;11.05;;
57241;SDS011;43095;53.302;5.786;2023-03-02T00:06:04;15.05;;;10.35;;
57241;SDS011;43095;53.302;5.786;2023-03-02T00:08:32;15.52;;;10.27;;
57241;SDS011;43095;53.302;5.786;2023-03-02T00:11:00;12.70;;;9.98;;
57241;SDS011;43095;53.302;5.786;2023-03-02T00:13:29;12.98;;;10.55;;
57241;SDS011;43095;53.302;5.786;2023-03-02T00:15:57;16.80;;;10.63;;
57241;SDS011;43095;53.302;5.786;2023-03-02T00:18:24;13.43;;;9.80;;
57241;SDS011;43095;53.302;5.786;2023-03-02T00:20:52;15.65;;;10.88;;
57241;SDS011;43095;53.302;5.786;2023-03-02T00:23:20;16.73;;;10.60;;
57241;SDS011;43095;53.302;5.786;2023-03-02T00:25:47;15.65;;;9.52;;
57241;SDS011;43095;53.302;5.786;2023-03-02T00:28:15;20.35;;;9.80;;
57241;SDS011;43095;53.302;5.786;2023-03-02T00:30:42;12.02;;;9.05;;
57241;SDS011;43095;53.302;5.786;2023-03-02T00:33:10;12.80;;;8.75;;
57241;SDS011;43095;53.302;5.786;2023-03-02T00:35:41;14.27;;;8.05;;
57241;SDS011;43095;53.302;5.786;2023-03-02T00:38:08;13.15;;;8.23;;
57241;SDS011;43095;53.302;5.786;2023-03-02T00:40:36;10.95;;;7.03;;
57241;SDS011;43095;53.302;5.786;2023-03-02T00:43:04;12.05;;;7.30;;
57241;SDS011;43095;53.302;5.786;2023-03-02T00:45:31;20.20;;;8.80;;
57241;SDS011;43095;53.302;5.786;2023-03-02T00:47:59;13.38;;;8.65;;
57241;SDS011;43095;53.302;5.786;2023-03-02T00:50:27;15.25;;;8.40;;
57241;SDS011;43095;53.302;5.786;2023-03-02T00:52:54;14.10;;;7.72;;
57241;SDS011;43095;53.302;5.786;2023-03-02T00:55:22;12.88;;;8.73;;
57241;SDS011;43095;53.302;5.786;2023-03-02T00:57:53;14.15;;;8.20;;
57241;SDS011;43095;53.302;5.786;2023-03-02T01:00:26;12.73;;;8.13;;
57241;SDS011;43095;53.302;5.786;2023-03-02T01:02:57;13.68;;;7.25;;
57241;SDS011;43095;53.302;5.786;2023-03-02T01:05:25;12.55;;;7.38;;
57241;SDS011;43095;53.302;5.786;2023-03-02T01:07:53;10.20;;;6.82;;
57241;SDS011;43095;53.302;5.786;2023-03-02T01:10:21;10.98;;;6.63;;
57241;SDS011;43095;53.302;5.786;2023-03-02T01:12:48;11.05;;;7.22;;
57241;SDS011;43095;53.302;5.786;2023-03-02T01:15:16;12.20;;;7.75;;
57241;SDS011;43095;53.302;5.786;2023-03-02T01:17:44;14.02;;;8.02;;
57241;SDS011;43095;53.302;5.786;2023-03-02T01:20:12;14.65;;;8.35;;
57241;SDS011;43095;53.302;5.786;2023-03-02T01:22:41;15.23;;;7.47;;
57241;SDS011;43095;53.302;5.786;2023-03-02T01:25:10;11.55;;;7.82;;
57241;SDS011;43095;53.302;5.786;2023-03-02T01:27:38;11.63;;;7.63;;
57241;SDS011;43095;53.302;5.786;2023-03-02T01:30:09;12.55;;;7.88;;
57241;SDS011;43095;53.302;5.786;2023-03-02T01:32:36;11.73;;;7.43;;
57241;SDS011;43095;53.302;5.786;2023-03-02T01:35:04;11.70;;;7.13;;
57241;SDS011;43095;53.302;5.786;2023-03-02T01:37:32;15.18;;;9.30;;
57241;SDS011;43095;53.302;5.786;2023-03-02T01:40:00;12.45;;;9.38;;
57241;SDS011;43095;53.302;5.786;2023-03-02T01:42:39;14.52;;;9.50;;
57241;SDS011;43095;53.302;5.786;2023-03-02T01:47:54;15.07;;;9.27;;
57241;SDS011;43095;53.302;5.786;2023-03-02T01:50:22;13.77;;;9.02;;
57241;SDS011;43095;53.302;5.786;2023-03-02T01:52:55;15.10;;;10.05;;
57241;SDS011;43095;53.302;5.786;2023-03-02T01:55:24;16.70;;;10.68;;
57241;SDS011;43095;53.302;5.786;2023-03-02T01:57:52;21.98;;;10.45;;
57241;SDS011;43095;53.302;5.786;2023-03-02T02:00:29;19.35;;;11.98;;
57241;SDS011;43095;53.302;5.786;2023-03-02T02:03:01;16.58;;;11.85;;
57241;SDS011;43095;53.302;5.786;2023-03-02T02:05:39;18.38;;;11.88;;
57241;SDS011;43095;53.302;5.786;2023-03-02T02:08:07;20.42;;;12.02;;
57241;SDS011;43095;53.302;5.786;2023-03-02T02:10:35;18.25;;;12.30;;
57241;SDS011;43095;53.302;5.786;2023-03-02T02:13:02;17.10;;;11.73;;
57241;SDS011;43095;53.302;5.786;2023-03-02T02:15:30;20.42;;;12.65;;
57241;SDS011;43095;53.302;5.786;2023-03-02T02:17:57;16.10;;;11.65;;
57241;SDS011;43095;53.302;5.786;2023-03-02T02:27:51;20.30;;;10.82;;
57241;SDS011;43095;53.302;5.786;2023-03-02T02:30:18;14.90;;;11.07;;
57241;SDS011;43095;53.302;5.786;2023-03-02T02:32:47;16.02;;;11.25;;
57241;SDS011;43095;53.302;5.786;2023-03-02T02:35:17;18.05;;;11.45;;
57241;SDS011;43095;53.302;5.786;2023-03-02T02:37:47;15.80;;;11.35;;
57241;SDS011;43095;53.302;5.786;2023-03-02T02:40:18;19.80;;;11.90;;
57241;SDS011;43095;53.302;5.786;2023-03-02T02:42:48;16.38;;;11.70;;
57241;SDS011;43095;53.302;5.786;2023-03-02T02:47:46;17.80;;;11.15;;
57241;SDS011;43095;53.302;5.786;2023-03-02T02:50:18;16.48;;;11.20;;
57241;SDS011;43095;53.302;5.786;2023-03-02T02:52:48;18.20;;;10.82;;
57241;SDS011;43095;53.302;5.786;2023-03-02T02:55:19;19.73;;;10.85;;
57241;SDS011;43095;53.302;5.786;2023-03-02T02:57:50;18.48;;;11.52;;
57241;SDS011;43095;53.302;5.786;2023-03-02T03:00:18;16.63;;;10.65;;
57241;SDS011;43095;53.302;5.786;2023-03-02T03:02:47;18.48;;;11.43;;
57241;SDS011;43095;53.302;5.786;2023-03-02T03:05:16;17.58;;;11.82;;
57241;SDS011;43095;53.302;5.786;2023-03-02T03:07:44;21.83;;;11.40;;
57241;SDS011;43095;53.302;5.786;2023-03-02T03:10:18;18.45;;;12.32;;
57241;SDS011;43095;53.302;5.786;2023-03-02T03:12:48;17.70;;;12.05;;
57241;SDS011;43095;53.302;5.786;2023-03-02T03:15:19;24.00;;;11.85;;
57241;SDS011;43095;53.302;5.786;2023-03-02T03:17:51;17.23;;;11.63;;
57241;SDS011;43095;53.302;5.786;2023-03-02T03:20:20;20.75;;;12.73;;
57241;SDS011;43095;53.302;5.786;2023-03-02T03:22:48;18.00;;;11.82;;
57241;SDS011;43095;53.302;5.786;2023-03-02T03:25:20;18.70;;;12.45;;
57241;SDS011;43095;53.302;5.786;2023-03-02T03:27:48;19.73;;;12.80;;
57241;SDS011;43095;53.302;5.786;2023-03-02T03:30:17;22.92;;;13.88;;
57241;SDS011;43095;53.302;5.786;2023-03-02T03:32:45;23.77;;;14.52;;
57241;SDS011;43095;53.302;5.786;2023-03-02T03:35:14;25.98;;;16.08;;
57241;SDS011;43095;53.302;5.786;2023-03-02T03:37:42;27.95;;;16.35;;
57241;SDS011;43095;53.302;5.786;2023-03-02T03:40:13;34.55;;;18.90;;
57241;SDS011;43095;53.302;5.786;2023-03-02T03:42:42;30.33;;;18.77;;
57241;SDS011;43095;53.302;5.786;2023-03-02T03:45:11;29.70;;;18.05;;
57241;SDS011;43095;53.302;5.786;2023-03-02T03:47:41;32.88;;;18.63;;
57241;SDS011;43095;53.302;5.786;2023-03-02T03:50:09;39.13;;;21.52;;
57241;SDS011;43095;53.302;5.786;2023-03-02T03:52:37;37.28;;;22.08;;
57241;SDS011;43095;53.302;5.786;2023-03-02T03:55:10;46.00;;;25.98;;
57241;SDS011;43095;53.302;5.786;2023-03-02T03:57:39;44.75;;;25.70;;
57241;SDS011;43095;53.302;5.786;2023-03-02T04:00:08;45.45;;;25.13;;
57241;SDS011;43095;53.302;5.786;2023-03-02T04:02:39;41.45;;;24.48;;
57241;SDS011;43095;53.302;5.786;2023-03-02T04:05:08;40.75;;;24.70;;
57241;SDS011;43095;53.302;5.786;2023-03-02T04:07:36;40.45;;;23.42;;
57241;SDS011;43095;53.302;5.786;2023-03-02T04:10:04;38.15;;;23.58;;
57241;SDS011;43095;53.302;5.786;2023-03-02T04:12:38;41.75;;;23.92;;
57241;SDS011;43095;53.302;5.786;2023-03-02T04:15:07;38.10;;;22.23;;
57241;SDS011;43095;53.302;5.786;2023-03-02T04:17:35;36.65;;;22.25;;
57241;SDS011;43095;53.302;5.786;2023-03-02T04:20:03;39.95;;;22.58;;
57241;SDS011;43095;53.302;5.786;2023-03-02T04:22:36;35.58;;;21.10;;
57241;SDS011;43095;53.302;5.786;2023-03-02T04:25:03;33.72;;;20.48;;
57241;SDS011;43095;53.302;5.786;2023-03-02T04:27:31;39.35;;;22.27;;
57241;SDS011;43095;53.302;5.786;2023-03-02T04:29:59;41.15;;;21.20;;
57241;SDS011;43095;53.302;5.786;2023-03-02T04:32:28;38.10;;;22.10;;
57241;SDS011;43095;53.302;5.786;2023-03-02T04:34:56;38.67;;;20.75;;
57241;SDS011;43095;53.302;5.786;2023-03-02T04:37:25;37.30;;;21.17;;
57241;SDS011;43095;53.302;5.786;2023-03-02T04:39:53;37.20;;;20.98;;
57241;SDS011;43095;53.302;5.786;2023-03-02T04:42:20;38.55;;;22.50;;
57241;SDS011;43095;53.302;5.786;2023-03-02T04:44:48;37.83;;;22.27;;
57241;SDS011;43095;53.302;5.786;2023-03-02T04:47:15;37.15;;;21.65;;
57241;SDS011;43095;53.302;5.786;2023-03-02T04:49:43;37.35;;;21.10;;
57241;SDS011;43095;53.302;5.786;2023-03-02T04:52:10;42.38;;;22.30;;
57241;SDS011;43095;53.302;5.786;2023-03-02T04:54:38;39.05;;;22.10;;
57241;SDS011;43095;53.302;5.786;2023-03-02T04:57:05;39.53;;;22.75;;
57241;SDS011;43095;53.302;5.786;2023-03-02T04:59:34;38.50;;;23.30;;
57241;SDS011;43095;53.302;5.786;2023-03-02T05:02:01;40.15;;;24.25;;
57241;SDS011;43095;53.302;5.786;2023-03-02T05:04:29;44.75;;;24.75;;
57241;SDS011;43095;53.302;5.786;2023-03-02T05:06:57;40.75;;;24.48;;
57241;SDS011;43095;53.302;5.786;2023-03-02T05:09:24;45.35;;;24.33;;
57241;SDS011;43095;53.302;5.786;2023-03-02T05:11:57;50.58;;;26.83;;
57241;SDS011;43095;53.302;5.786;2023-03-02T05:14:25;46.58;;;25.92;;
57241;SDS011;43095;53.302;5.786;2023-03-02T05:16:53;42.60;;;24.45;;
57241;SDS011;43095;53.302;5.786;2023-03-02T05:19:20;43.60;;;26.23;;
57241;SDS011;43095;53.302;5.786;2023-03-02T05:21:48;48.28;;;26.90;;
57241;SDS011;43095;53.302;5.786;2023-03-02T05:24:15;42.78;;;25.67;;
57241;SDS011;43095;53.302;5.786;2023-03-02T05:26:43;51.30;;;28.35;;
57241;SDS011;43095;53.302;5.786;2023-03-02T05:29:10;51.88;;;28.75;;
57241;SDS011;43095;53.302;5.786;2023-03-02T05:31:39;55.50;;;29.23;;
57241;SDS011;43095;53.302;5.786;2023-03-02T05:34:07;51.85;;;29.92;;
57241;SDS011;43095;53.302;5.786;2023-03-02T05:36:36;53.55;;;29.50;;
57241;SDS011;43095;53.302;5.786;2023-03-02T05:39:04;52.30;;;30.02;;
57241;SDS011;43095;53.302;5.786;2023-03-02T05:41:32;52.30;;;29.80;;
57241;SDS011;43095;53.302;5.786;2023-03-02T05:44:00;59.90;;;33.63;;
57241;SDS011;43095;53.302;5.786;2023-03-02T05:46:28;60.42;;;33.30;;
57241;SDS011;43095;53.302;5.786;2023-03-02T05:48:55;62.20;;;35.53;;
57241;SDS011;43095;53.302;5.786;2023-03-02T05:51:23;62.63;;;34.63;;
57241;SDS011;43095;53.302;5.786;2023-03-02T05:53:50;67.00;;;36.75;;
57241;SDS011;43095;53.302;5.786;2023-03-02T05:56:18;71.80;;;39.40;;
57241;SDS011;43095;53.302;5.786;2023-03-02T05:58:47;82.63;;;42.40;;
57241;SDS011;43095;53.302;5.786;2023-03-02T06:01:15;82.15;;;41.90;;
57241;SDS011;43095;53.302;5.786;2023-03-02T06:03:42;86.40;;;45.67;;
57241;SDS011;43095;53.302;5.786;2023-03-02T06:06:10;82.75;;;43.20;;
57241;SDS011;43095;53.302;5.786;2023-03-02T06:08:40;87.07;;;45.00;;
57241;SDS011;43095;53.302;5.786;2023-03-02T06:11:08;81.65;;;44.20;;
57241;SDS011;43095;53.302;5.786;2023-03-02T06:13:35;83.68;;;44.00;;
57241;SDS011;43095;53.302;5.786;2023-03-02T06:16:03;85.95;;;43.55;;
57241;SDS011;43095;53.302;5.786;2023-03-02T06:18:31;83.55;;;44.20;;
57241;SDS011;43095;53.302;5.786;2023-03-02T06:20:59;93.00;;;45.63;;
57241;SDS011;43095;53.302;5.786;2023-03-02T06:23:27;85.82;;;45.53;;
57241;SDS011;43095;53.302;5.786;2023-03-02T06:25:55;89.05;;;46.28;;
57241;SDS011;43095;53.302;5.786;2023-03-02T06:28:24;83.45;;;44.35;;
57241;SDS011;43095;53.302;5.786;2023-03-02T06:30:52;88.93;;;43.33;;
57241;SDS011;43095;53.302;5.786;2023-03-02T06:33:19;87.07;;;44.90;;
57241;SDS011;43095;53.302;5.786;2023-03-02T06:35:47;83.22;;;43.35;;
57241;SDS011;43095;53.302;5.786;2023-03-02T06:38:15;73.97;;;39.95;;
57241;SDS011;43095;53.302;5.786;2023-03-02T06:40:43;71.50;;;37.50;;
57241;SDS011;43095;53.302;5.786;2023-03-02T06:43:10;66.20;;;37.00;;
57241;SDS011;43095;53.302;5.786;2023-03-02T06:45:38;66.38;;;36.85;;
57241;SDS011;43095;53.302;5.786;2023-03-02T06:48:06;66.45;;;36.05;;
57241;SDS011;43095;53.302;5.786;2023-03-02T06:50:33;71.28;;;38.75;;
57241;SDS011;43095;53.302;5.786;2023-03-02T06:53:01;63.33;;;34.03;;
57241;SDS011;43095;53.302;5.786;2023-03-02T06:55:29;63.83;;;35.30;;
57241;SDS011;43095;53.302;5.786;2023-03-02T06:57:56;64.95;;;34.28;;
57241;SDS011;43095;53.302;5.786;2023-03-02T07:00:24;66.18;;;35.33;;
57241;SDS011;43095;53.302;5.786;2023-03-02T07:02:54;70.22;;;36.63;;
57241;SDS011;43095;53.302;5.786;2023-03-02T07:05:21;55.53;;;31.23;;
57241;SDS011;43095;53.302;5.786;2023-03-02T07:07:50;59.95;;;34.83;;
57241;SDS011;43095;53.302;5.786;2023-03-02T07:10:17;63.72;;;35.53;;
57241;SDS011;43095;53.302;5.786;2023-03-02T07:12:45;65.88;;;36.47;;
57241;SDS011;43095;53.302;5.786;2023-03-02T07:15:12;68.15;;;37.10;;
57241;SDS011;43095;53.302;5.786;2023-03-02T07:17:41;65.60;;;35.17;;
57241;SDS011;43095;53.302;5.786;2023-03-02T07:20:09;70.00;;;36.15;;
57241;SDS011;43095;53.302;5.786;2023-03-02T07:22:37;66.65;;;35.95;;
57241;SDS011;43095;53.302;5.786;2023-03-02T07:25:05;58.35;;;33.25;;
57241;SDS011;43095;53.302;5.786;2023-03-02T07:27:51;65.63;;;35.55;;
57241;SDS011;43095;53.302;5.786;2023-03-02T07:30:23;63.78;;;34.80;;
57241;SDS011;43095;53.302;5.786;2023-03-02T07:32:51;72.65;;;35.45;;
57241;SDS011;43095;53.302;5.786;2023-03-02T07:35:18;65.00;;;35.17;;
57241;SDS011;43095;53.302;5.786;2023-03-02T07:37:48;63.35;;;34.17;;
57241;SDS011;43095;53.302;5.786;2023-03-02T07:40:15;71.50;;;34.30;;
57241;SDS011;43095;53.302;5.786;2023-03-02T07:42:43;59.97;;;34.20;;
57241;SDS011;43095;53.302;5.786;2023-03-02T07:45:13;63.15;;;33.70;;
57241;SDS011;43095;53.302;5.786;2023-03-02T07:47:42;60.78;;;32.08;;
57241;SDS011;43095;53.302;5.786;2023-03-02T07:50:10;63.00;;;31.45;;
57241;SDS011;43095;53.302;5.786;2023-03-02T07:52:37;63.60;;;32.90;;
57241;SDS011;43095;53.302;5.786;2023-03-02T07:55:05;63.00;;;32.65;;
57241;SDS011;43095;53.302;5.786;2023-03-02T07:57:33;55.50;;;30.23;;
57241;SDS011;43095;53.302;5.786;2023-03-02T08:00:00;55.42;;;29.67;;
57241;SDS011;43095;53.302;5.786;2023-03-02T08:02:38;59.72;;;31.23;;
57241;SDS011;43095;53.302;5.786;2023-03-02T08:05:06;58.13;;;31.40;;
57241;SDS011;43095;53.302;5.786;2023-03-02T08:07:33;58.03;;;30.33;;
57241;SDS011;43095;53.302;5.786;2023-03-02T08:10:01;55.30;;;29.00;;
57241;SDS011;43095;53.302;5.786;2023-03-02T08:12:28;56.35;;;30.40;;
57241;SDS011;43095;53.302;5.786;2023-03-02T08:14:56;62.85;;;32.08;;
57241;SDS011;43095;53.302;5.786;2023-03-02T08:17:23;58.22;;;29.27;;
57241;SDS011;43095;53.302;5.786;2023-03-02T08:19:51;65.18;;;31.60;;
57241;SDS011;43095;53.302;5.786;2023-03-02T08:22:18;62.95;;;31.08;;
57241;SDS011;43095;53.302;5.786;2023-03-02T08:24:46;57.28;;;29.35;;
57241;SDS011;43095;53.302;5.786;2023-03-02T08:27:14;64.43;;;29.85;;
57241;SDS011;43095;53.302;5.786;2023-03-02T08:29:41;62.78;;;32.80;;
57241;SDS011;43095;53.302;5.786;2023-03-02T08:32:09;61.60;;;31.73;;
57241;SDS011;43095;53.302;5.786;2023-03-02T08:34:36;54.35;;;27.42;;
57241;SDS011;43095;53.302;5.786;2023-03-02T08:37:04;58.75;;;29.58;;
57241;SDS011;43095;53.302;5.786;2023-03-02T08:39:31;60.47;;;31.48;;
57241;SDS011;43095;53.302;5.786;2023-03-02T08:41:59;59.60;;;30.73;;
57241;SDS011;43095;53.302;5.786;2023-03-02T08:44:26;60.05;;;29.80;;
57241;SDS011;43095;53.302;5.786;2023-03-02T08:46:54;58.05;;;30.10;;
57241;SDS011;43095;53.302;5.786;2023-03-02T08:49:21;54.25;;;29.75;;
57241;SDS011;43095;53.302;5.786;2023-03-02T08:51:49;44.35;;;22.77;;
57241;SDS011;43095;53.302;5.786;2023-03-02T08:54:21;40.75;;;22.40;;
57241;SDS011;43095;53.302;5.786;2023-03-02T08:56:49;43.67;;;22.20;;
57241;SDS011;43095;53.302;5.786;2023-03-02T08:59:17;44.80;;;23.25;;
57241;SDS011;43095;53.302;5.786;2023-03-02T09:01:44;46.15;;;23.95;;
57241;SDS011;43095;53.302;5.786;2023-03-02T09:04:12;45.90;;;22.13;;
57241;SDS011;43095;53.302;5.786;2023-03-02T09:06:40;48.13;;;25.65;;
57241;SDS011;43095;53.302;5.786;2023-03-02T09:09:09;47.78;;;25.15;;
57241;SDS011;43095;53.302;5.786;2023-03-02T09:11:37;50.50;;;22.80;;
57241;SDS011;43095;53.302;5.786;2023-03-02T09:14:04;47.85;;;25.70;;
57241;SDS011;43095;53.302;5.786;2023-03-02T09:16:32;46.90;;;25.83;;
57241;SDS011;43095;53.302;5.786;2023-03-02T09:18:59;47.92;;;26.17;;
57241;SDS011;43095;53.302;5.786;2023-03-02T09:21:27;54.22;;;27.45;;
57241;SDS011;43095;53.302;5.786;2023-03-02T09:23:54;46.30;;;25.38;;
57241;SDS011;43095;53.302;5.786;2023-03-02T09:26:26;47.65;;;26.42;;
57241;SDS011;43095;53.302;5.786;2023-03-02T09:28:54;49.97;;;25.73;;
57241;SDS011;43095;53.302;5.786;2023-03-02T09:31:22;49.15;;;26.13;;
57241;SDS011;43095;53.302;5.786;2023-03-02T09:33:50;47.88;;;25.50;;
57241;SDS011;43095;53.302;5.786;2023-03-02T09:36:19;45.85;;;26.63;;
57241;SDS011;43095;53.302;5.786;2023-03-02T09:38:47;50.53;;;28.58;;
57241;SDS011;43095;53.302;5.786;2023-03-02T09:44:21;48.40;;;26.42;;
57241;SDS011;43095;53.302;5.786;2023-03-02T09:49:35;51.67;;;27.70;;
57241;SDS011;43095;53.302;5.786;2023-03-02T09:54:42;54.10;;;25.23;;
57241;SDS011;43095;53.302;5.786;2023-03-02T09:57:20;54.85;;;26.67;;
57241;SDS011;43095;53.302;5.786;2023-03-02T10:00:01;58.42;;;27.98;;
57241;SDS011;43095;53.302;5.786;2023-03-02T10:05:16;53.72;;;26.17;;
57241;SDS011;43095;53.302;5.786;2023-03-02T10:07:44;57.33;;;28.88;;
57241;SDS011;43095;53.302;5.786;2023-03-02T10:12:52;53.03;;;25.10;;
57241;SDS011;43095;53.302;5.786;2023-03-02T10:15:45;57.72;;;27.85;;
57241;SDS011;43095;53.302;5.786;2023-03-02T10:18:20;51.63;;;23.88;;
57241;SDS011;43095;53.302;5.786;2023-03-02T10:20:58;54.10;;;25.95;;
57241;SDS011;43095;53.302;5.786;2023-03-02T10:23:34;50.58;;;24.73;;
57241;SDS011;43095;53.302;5.786;2023-03-02T10:28:37;50.17;;;24.67;;
57241;SDS011;43095;53.302;5.786;2023-03-02T10:31:08;56.20;;;26.10;;
57241;SDS011;43095;53.302;5.786;2023-03-02T10:33:36;55.72;;;25.52;;
57241;SDS011;43095;53.302;5.786;2023-03-02T10:36:10;54.55;;;24.58;;
57241;SDS011;43095;53.302;5.786;2023-03-02T10:38:41;50.15;;;22.98;;
57241;SDS011;43095;53.302;5.786;2023-03-02T10:41:09;54.60;;;24.88;;
57241;SDS011;43095;53.302;5.786;2023-03-02T10:43:43;53.33;;;24.10;;
57241;SDS011;43095;53.302;5.786;2023-03-02T10:46:12;53.45;;;25.58;;
57241;SDS011;43095;53.302;5.786;2023-03-02T10:48:50;48.38;;;22.30;;
57241;SDS011;43095;53.302;5.786;2023-03-02T10:54:03;42.85;;;20.67;;
57241;SDS011;43095;53.302;5.786;2023-03-02T10:56:30;44.50;;;21.73;;
57241;SDS011;43095;53.302;5.786;2023-03-02T10:58:59;44.38;;;21.65;;
57241;SDS011;43095;53.302;5.786;2023-03-02T11:01:30;44.20;;;20.63;;
57241;SDS011;43095;53.302;5.786;2023-03-02T11:03:58;45.63;;;22.15;;
57241;SDS011;43095;53.302;5.786;2023-03-02T11:06:27;51.10;;;23.67;;
57241;SDS011;43095;53.302;5.786;2023-03-02T11:11:26;50.03;;;22.35;;
57241;SDS011;43095;53.302;5.786;2023-03-02T11:13:54;41.70;;;21.48;;
57241;SDS011;43095;53.302;5.786;2023-03-02T11:16:26;45.55;;;22.65;;
57241;SDS011;43095;53.302;5.786;2023-03-02T11:19:00;44.95;;;21.17;;
57241;SDS011;43095;53.302;5.786;2023-03-02T11:26:43;41.65;;;21.17;;
57241;SDS011;43095;53.302;5.786;2023-03-02T11:32:12;41.67;;;20.30;;
57241;SDS011;43095;53.302;5.786;2023-03-02T11:34:43;40.47;;;19.88;;
57241;SDS011;43095;53.302;5.786;2023-03-02T11:37:27;46.00;;;22.23;;
57241;SDS011;43095;53.302;5.786;2023-03-02T11:42:31;38.85;;;19.15;;
57241;SDS011;43095;53.302;5.786;2023-03-02T11:47:27;39.22;;;19.15;;
57241;SDS011;43095;53.302;5.786;2023-03-02T11:49:56;40.63;;;18.73;;
57241;SDS011;43095;53.302;5.786;2023-03-02T11:52:26;38.53;;;18.73;;
57241;SDS011;43095;53.302;5.786;2023-03-02T11:54:58;35.70;;;19.38;;
57241;SDS011;43095;53.302;5.786;2023-03-02T11:59:54;35.72;;;19.77;;
57241;SDS011;43095;53.302;5.786;2023-03-02T12:02:24;32.40;;;18.38;;
57241;SDS011;43095;53.302;5.786;2023-03-02T12:05:06;31.10;;;18.13;;
57241;SDS011;43095;53.302;5.786;2023-03-02T12:07:34;30.73;;;16.77;;
57241;SDS011;43095;53.302;5.786;2023-03-02T12:10:06;30.63;;;16.75;;
57241;SDS011;43095;53.302;5.786;2023-03-02T12:12:37;31.30;;;16.92;;
57241;SDS011;43095;53.302;5.786;2023-03-02T12:15:25;30.90;;;15.60;;
57241;SDS011;43095;53.302;5.786;2023-03-02T12:17:53;26.77;;;16.42;;
57241;SDS011;43095;53.302;5.786;2023-03-02T12:20:24;28.83;;;16.50;;
57241;SDS011;43095;53.302;5.786;2023-03-02T12:22:52;29.88;;;16.83;;
57241;SDS011;43095;53.302;5.786;2023-03-02T12:27:48;24.27;;;14.45;;
57241;SDS011;43095;53.302;5.786;2023-03-02T12:35:25;15.02;;;9.88;;
57241;SDS011;43095;53.302;5.786;2023-03-02T12:38:00;15.20;;;9.27;;
57241;SDS011;43095;53.302;5.786;2023-03-02T12:43:19;14.05;;;9.35;;
57241;SDS011;43095;53.302;5.786;2023-03-02T12:48:51;15.23;;;9.82;;
57241;SDS011;43095;53.302;5.786;2023-03-02T12:51:24;17.50;;;10.57;;
57241;SDS011;43095;53.302;5.786;2023-03-02T12:54:05;14.93;;;9.52;;
57241;SDS011;43095;53.302;5.786;2023-03-02T12:56:33;15.23;;;10.07;;
57241;SDS011;43095;53.302;5.786;2023-03-02T12:59:01;15.77;;;9.68;;
57241;SDS011;43095;53.302;5.786;2023-03-02T13:01:29;14.07;;;9.05;;
57241;SDS011;43095;53.302;5.786;2023-03-02T13:03:57;16.55;;;10.05;;
57241;SDS011;43095;53.302;5.786;2023-03-02T13:06:29;14.55;;;10.25;;
57241;SDS011;43095;53.302;5.786;2023-03-02T13:08:58;16.58;;;10.32;;
57241;SDS011;43095;53.302;5.786;2023-03-02T13:11:32;16.02;;;10.48;;
57241;SDS011;43095;53.302;5.786;2023-03-02T13:14:01;19.40;;;10.60;;
57241;SDS011;43095;53.302;5.786;2023-03-02T13:16:32;15.43;;;9.95;;
57241;SDS011;43095;53.302;5.786;2023-03-02T13:19:05;16.13;;;8.68;;
57241;SDS011;43095;53.302;5.786;2023-03-02T13:21:36;15.25;;;10.00;;
57241;SDS011;43095;53.302;5.786;2023-03-02T13:27:18;16.67;;;9.52;;
57241;SDS011;43095;53.302;5.786;2023-03-02T13:29:46;12.55;;;8.60;;
57241;SDS011;43095;53.302;5.786;2023-03-02T13:32:21;14.77;;;8.73;;
57241;SDS011;43095;53.302;5.786;2023-03-02T13:34:53;12.18;;;8.02;;
57241;SDS011;43095;53.302;5.786;2023-03-02T13:37:32;13.88;;;8.40;;
57241;SDS011;43095;53.302;5.786;2023-03-02T13:40:05;12.80;;;8.07;;
57241;SDS011;43095;53.302;5.786;2023-03-02T13:42:33;12.98;;;8.40;;
57241;SDS011;43095;53.302;5.786;2023-03-02T13:47:48;12.32;;;8.77;;
57241;SDS011;43095;53.302;5.786;2023-03-02T13:50:16;15.82;;;9.45;;
57241;SDS011;43095;53.302;5.786;2023-03-02T13:52:44;11.93;;;8.50;;
57241;SDS011;43095;53.302;5.786;2023-03-02T13:55:14;16.15;;;9.05;;
57241;SDS011;43095;53.302;5.786;2023-03-02T13:57:42;14.50;;;8.75;;
57241;SDS011;43095;53.302;5.786;2023-03-02T14:00:17;13.40;;;8.63;;
57241;SDS011;43095;53.302;5.786;2023-03-02T14:02:45;13.52;;;8.02;;
57241;SDS011;43095;53.302;5.786;2023-03-02T14:05:16;12.60;;;8.85;;
57241;SDS011;43095;53.302;5.786;2023-03-02T14:07:44;18.23;;;10.15;;
57241;SDS011;43095;53.302;5.786;2023-03-02T14:10:12;11.73;;;8.95;;
57241;SDS011;43095;53.302;5.786;2023-03-02T14:12:41;12.88;;;8.77;;
57241;SDS011;43095;53.302;5.786;2023-03-02T14:15:13;12.38;;;9.15;;
57241;SDS011;43095;53.302;5.786;2023-03-02T14:17:41;12.15;;;8.32;;
57241;SDS011;43095;53.302;5.786;2023-03-02T14:20:10;11.95;;;8.05;;
57241;SDS011;43095;53.302;5.786;2023-03-02T14:22:38;13.20;;;8.90;;
57241;SDS011;43095;53.302;5.786;2023-03-02T14:25:06;12.65;;;9.05;;
57241;SDS011;43095;53.302;5.786;2023-03-02T14:27:34;13.30;;;9.40;;
57241;SDS011;43095;53.302;5.786;2023-03-02T14:30:13;16.00;;;11.60;;
57241;SDS011;43095;53.302;5.786;2023-03-02T14:32:41;14.88;;;9.25;;
57241;SDS011;43095;53.302;5.786;2023-03-02T14:35:12;14.63;;;10.35;;
57241;SDS011;43095;53.302;5.786;2023-03-02T14:37:42;15.07;;;10.52;;
57241;SDS011;43095;53.302;5.786;2023-03-02T14:40:22;18.17;;;10.13;;
57241;SDS011;43095;53.302;5.786;2023-03-02T14:42:50;13.52;;;9.77;;
57241;SDS011;43095;53.302;5.786;2023-03-02T14:45:19;14.77;;;10.05;;
57241;SDS011;43095;53.302;5.786;2023-03-02T14:47:46;12.80;;;9.75;;
57241;SDS011;43095;53.302;5.786;2023-03-02T14:50:14;18.88;;;10.25;;
57241;SDS011;43095;53.302;5.786;2023-03-02T14:52:43;12.98;;;10.13;;
57241;SDS011;43095;53.302;5.786;2023-03-02T14:55:30;21.08;;;10.68;;
57241;SDS011;43095;53.302;5.786;2023-03-02T14:57:59;13.52;;;9.75;;
57241;SDS011;43095;53.302;5.786;2023-03-02T15:00:32;14.60;;;10.55;;
57241;SDS011;43095;53.302;5.786;2023-03-02T15:03:00;12.45;;;9.27;;
57241;SDS011;43095;53.302;5.786;2023-03-02T15:05:27;14.57;;;10.15;;
57241;SDS011;43095;53.302;5.786;2023-03-02T15:07:57;14.07;;;9.68;;
57241;SDS011;43095;53.302;5.786;2023-03-02T15:10:25;14.05;;;9.63;;
57241;SDS011;43095;53.302;5.786;2023-03-02T15:12:53;15.98;;;10.50;;
57241;SDS011;43095;53.302;5.786;2023-03-02T15:15:20;17.33;;;9.85;;
57241;SDS011;43095;53.302;5.786;2023-03-02T15:17:48;13.60;;;8.82;;
57241;SDS011;43095;53.302;5.786;2023-03-02T15:20:16;13.18;;;9.18;;
57241;SDS011;43095;53.302;5.786;2023-03-02T15:22:43;15.55;;;10.05;;
57241;SDS011;43095;53.302;5.786;2023-03-02T15:25:11;14.85;;;9.48;;
57241;SDS011;43095;53.302;5.786;2023-03-02T15:27:38;17.70;;;10.18;;
57241;SDS011;43095;53.302;5.786;2023-03-02T15:30:07;15.48;;;10.85;;
57241;SDS011;43095;53.302;5.786;2023-03-02T15:32:35;16.40;;;10.32;;
57241;SDS011;43095;53.302;5.786;2023-03-02T15:35:03;15.55;;;10.32;;
57241;SDS011;43095;53.302;5.786;2023-03-02T15:37:30;15.43;;;10.27;;
57241;SDS011;43095;53.302;5.786;2023-03-02T15:39:58;16.30;;;10.73;;
57241;SDS011;43095;53.302;5.786;2023-03-02T15:42:25;18.38;;;11.05;;
57241;SDS011;43095;53.302;5.786;2023-03-02T15:44:53;17.10;;;10.93;;